createdAt,value
2022-12-15T00:02:35.468Z,-7.10
2022-12-15T00:05:22.179Z,-7.10
2022-12-15T00:08:08.001Z,-7.20
2022-12-15T00:10:53.842Z,-7.20
2022-12-15T00:13:39.684Z,-7.30
2022-12-15T00:16:25.942Z,-7.20
2022-12-15T00:19:11.860Z,-7.20
2022-12-15T00:21:57.737Z,-7.20
2022-12-15T00:24:43.542Z,-7.20
2022-12-15T00:27:29.481Z,-7.20
2022-12-15T00:30:15.314Z,-7.20
2022-12-15T00:33:01.409Z,-7.20
2022-12-15T00:35:47.279Z,-7.20
2022-12-15T00:38:34.251Z,-7.30
2022-12-15T00:41:02.215Z,-7.30
2022-12-15T00:43:32.007Z,-7.40
2022-12-15T00:46:18.791Z,-7.40
2022-12-15T00:48:46.635Z,-7.40
2022-12-15T00:51:15.040Z,-7.40
2022-12-15T00:54:01.051Z,-7.40
2022-12-15T00:56:47.394Z,-7.50
2022-12-15T00:59:33.563Z,-7.50
2022-12-15T01:02:19.321Z,-7.50
2022-12-15T01:05:04.883Z,-7.60
2022-12-15T01:07:50.739Z,-7.80
2022-12-15T01:10:37.993Z,-7.90
2022-12-15T01:13:24.320Z,-7.90
2022-12-15T01:16:10.380Z,-7.90
2022-12-15T01:18:56.157Z,-7.90
2022-12-15T01:21:25.205Z,-7.80
2022-12-15T01:23:53.279Z,-7.80
2022-12-15T01:26:20.702Z,-7.80
2022-12-15T01:28:49.971Z,-7.70
2022-12-15T01:31:17.084Z,-7.70
2022-12-15T01:33:44.206Z,-7.70
2022-12-15T01:36:11.974Z,-7.70
2022-12-15T01:38:39.333Z,-7.60
2022-12-15T01:41:10.296Z,-7.60
2022-12-15T01:43:40.028Z,-7.60
2022-12-15T01:46:18.055Z,-7.60
2022-12-15T01:48:53.992Z,-7.60
2022-12-15T01:51:35.583Z,-7.60
2022-12-15T01:54:14.992Z,-7.50
2022-12-15T01:56:46.833Z,-7.50
2022-12-15T01:59:30.712Z,-7.50
2022-12-15T02:01:58.486Z,-7.50
2022-12-15T02:04:26.017Z,-7.40
2022-12-15T02:06:53.340Z,-7.40
2022-12-15T02:09:23.029Z,-7.40
2022-12-15T02:12:09.250Z,-7.40
2022-12-15T02:15:00.044Z,-7.40
2022-12-15T02:17:58.792Z,-7.40
2022-12-15T02:20:46.624Z,-7.60
2022-12-15T02:23:28.951Z,-7.70
2022-12-15T02:26:20.950Z,-7.60
2022-12-15T02:29:04.285Z,-7.60
2022-12-15T02:31:50.599Z,-7.60
2022-12-15T02:34:40.619Z,-7.50
2022-12-15T02:37:15.455Z,-7.50
2022-12-15T02:39:43.322Z,-7.50
2022-12-15T02:42:12.221Z,-7.40
2022-12-15T02:44:47.923Z,-7.40
2022-12-15T02:47:39.234Z,-7.30
2022-12-15T02:50:24.770Z,-7.30
2022-12-15T02:53:16.297Z,-7.30
2022-12-15T02:55:50.362Z,-7.30
2022-12-15T02:58:48.398Z,-7.30
2022-12-15T03:01:30.703Z,-7.30
2022-12-15T03:04:00.003Z,-7.20
2022-12-15T03:06:27.614Z,-7.20
2022-12-15T03:08:54.866Z,-7.20
2022-12-15T03:11:22.417Z,-7.20
2022-12-15T03:13:49.805Z,-7.20
2022-12-15T03:16:17.348Z,-7.20
2022-12-15T03:18:44.498Z,-7.20
2022-12-15T03:21:11.648Z,-7.20
2022-12-15T03:23:39.253Z,-7.20
2022-12-15T03:26:06.848Z,-7.20
2022-12-15T03:28:34.173Z,-7.20
2022-12-15T03:31:01.601Z,-7.20
2022-12-15T03:33:29.299Z,-7.20
2022-12-15T03:35:56.985Z,-7.20
2022-12-15T03:38:24.143Z,-7.20
2022-12-15T03:40:51.381Z,-7.20
2022-12-15T03:43:18.594Z,-7.20
2022-12-15T03:45:45.822Z,-7.20
2022-12-15T03:48:13.305Z,-7.20
2022-12-15T03:50:40.992Z,-7.20
2022-12-15T03:53:08.517Z,-7.20
2022-12-15T03:55:35.578Z,-7.20
2022-12-15T03:58:03.089Z,-7.20
2022-12-15T04:00:30.504Z,-7.10
2022-12-15T04:02:57.823Z,-7.20
2022-12-15T04:05:33.460Z,-7.20
2022-12-15T04:08:01.472Z,-7.30
2022-12-15T04:10:34.480Z,-7.30
2022-12-15T04:13:07.104Z,-7.30
2022-12-15T04:15:37.065Z,-7.20
2022-12-15T04:18:07.583Z,-7.20
2022-12-15T04:20:34.806Z,-7.20
2022-12-15T04:23:02.174Z,-7.20
2022-12-15T04:25:47.763Z,-7.30
2022-12-15T04:28:33.531Z,-7.30
2022-12-15T04:31:34.112Z,-7.30
2022-12-15T04:34:23.928Z,-7.30
2022-12-15T04:37:12.749Z,-7.30
2022-12-15T04:40:01.720Z,-7.30
2022-12-15T04:42:50.248Z,-7.40
2022-12-15T04:45:40.627Z,-7.40
2022-12-15T04:48:26.871Z,-7.50
2022-12-15T04:51:12.745Z,-7.50
2022-12-15T04:53:58.515Z,-7.50
2022-12-15T04:56:44.351Z,-7.50
2022-12-15T04:59:30.290Z,-7.50
2022-12-15T05:02:16.348Z,-7.50
2022-12-15T05:05:02.199Z,-7.40
2022-12-15T05:07:47.821Z,-7.50
2022-12-15T05:10:33.860Z,-7.40
2022-12-15T05:13:26.921Z,-7.50
2022-12-15T05:16:12.879Z,-7.50
2022-12-15T05:18:58.655Z,-7.50
2022-12-15T05:21:44.507Z,-7.50
2022-12-15T05:24:30.345Z,-7.40
2022-12-15T05:27:16.060Z,-7.50
2022-12-15T05:30:02.000Z,-7.50
2022-12-15T05:32:33.145Z,-7.50
2022-12-15T05:35:01.420Z,-7.50
2022-12-15T05:37:30.060Z,-7.50
2022-12-15T05:39:57.187Z,-7.50
2022-12-15T05:42:24.383Z,-7.50
2022-12-15T05:44:51.833Z,-7.50
2022-12-15T05:47:18.896Z,-7.50
2022-12-15T05:49:46.041Z,-7.50
2022-12-15T05:52:13.260Z,-7.50
2022-12-15T05:54:40.272Z,-7.50
2022-12-15T05:57:07.379Z,-7.50
2022-12-15T05:59:34.428Z,-7.50
2022-12-15T06:02:01.695Z,-7.50
2022-12-15T06:04:29.202Z,-7.40
2022-12-15T06:06:56.404Z,-7.40
2022-12-15T06:09:23.573Z,-7.40
2022-12-15T06:11:50.873Z,-7.40
2022-12-15T06:14:18.020Z,-7.40
2022-12-15T06:16:50.821Z,-7.30
2022-12-15T06:19:19.351Z,-7.30
2022-12-15T06:21:46.478Z,-7.40
2022-12-15T06:24:13.736Z,-7.30
2022-12-15T06:26:41.145Z,-7.30
2022-12-15T06:29:10.980Z,-7.30
2022-12-15T06:31:40.660Z,-7.30
2022-12-15T06:34:11.114Z,-7.30
2022-12-15T06:36:39.358Z,-7.30
2022-12-15T06:39:10.814Z,-7.30
2022-12-15T06:41:38.758Z,-7.40
2022-12-15T06:44:06.109Z,-7.40
2022-12-15T06:46:35.272Z,-7.40
2022-12-15T06:49:02.881Z,-7.40
2022-12-15T06:51:30.589Z,-7.50
2022-12-15T06:53:58.071Z,-7.50
2022-12-15T06:56:32.933Z,-7.50
2022-12-15T06:59:02.072Z,-7.40
2022-12-15T07:01:30.095Z,-7.40
2022-12-15T07:04:00.408Z,-7.40
2022-12-15T07:06:29.902Z,-7.40
2022-12-15T07:08:57.101Z,-7.40
2022-12-15T07:11:24.848Z,-7.40
2022-12-15T07:13:53.076Z,-7.30
2022-12-15T07:16:22.337Z,-7.30
2022-12-15T07:18:49.991Z,-7.30
2022-12-15T07:21:17.933Z,-7.30
2022-12-15T07:23:54.636Z,-7.20
2022-12-15T07:26:23.813Z,-7.20
2022-12-15T07:28:51.237Z,-7.20
2022-12-15T07:31:18.564Z,-7.10
2022-12-15T07:33:47.669Z,-7.10
2022-12-15T07:36:14.954Z,-7.10
2022-12-15T07:38:42.000Z,-7.00
2022-12-15T07:41:10.341Z,-7.00
2022-12-15T07:43:38.182Z,-7.00
2022-12-15T07:46:06.295Z,-7.00
2022-12-15T07:48:34.383Z,-6.90
2022-12-15T07:51:11.110Z,-6.90
2022-12-15T07:53:40.347Z,-6.90
2022-12-15T07:56:09.624Z,-6.80
2022-12-15T07:58:38.394Z,-6.80
2022-12-15T08:01:13.332Z,-6.80
2022-12-15T08:03:41.338Z,-6.80
2022-12-15T08:06:11.643Z,-6.80
2022-12-15T08:08:39.591Z,-6.80
2022-12-15T08:11:12.277Z,-6.80
2022-12-15T08:16:28.736Z,-6.70
2022-12-15T08:18:57.464Z,-6.70
2022-12-15T08:21:24.651Z,-6.60
2022-12-15T08:23:52.021Z,-6.60
2022-12-15T08:26:23.839Z,-6.50
2022-12-15T08:28:54.147Z,-6.50
2022-12-15T08:31:23.316Z,-6.40
2022-12-15T08:33:50.776Z,-6.40
2022-12-15T08:36:19.761Z,-6.40
2022-12-15T08:38:47.922Z,-6.30
2022-12-15T08:41:23.226Z,-6.30
2022-12-15T08:43:51.063Z,-6.30
2022-12-15T08:46:21.113Z,-6.20
2022-12-15T08:48:49.103Z,-6.20
2022-12-15T08:51:17.392Z,-6.20
2022-12-15T08:53:45.009Z,-6.10
2022-12-15T08:56:16.165Z,-6.10
2022-12-15T08:58:44.426Z,-6.00
2022-12-15T09:01:20.541Z,-6.00
2022-12-15T09:03:51.285Z,-6.00
2022-12-15T09:06:21.198Z,-6.00
2022-12-15T09:08:50.523Z,-6.00
2022-12-15T09:11:18.402Z,-5.90
2022-12-15T09:13:45.753Z,-5.90
2022-12-15T09:16:15.893Z,-5.90
2022-12-15T09:18:57.313Z,-5.90
2022-12-15T09:21:26.896Z,-5.80
2022-12-15T09:23:58.027Z,-5.70
2022-12-15T09:26:25.301Z,-5.70
2022-12-15T09:28:53.371Z,-5.60
2022-12-15T09:31:26.728Z,-5.50
2022-12-15T09:33:56.519Z,-5.40
2022-12-15T09:36:25.003Z,-5.40
2022-12-15T09:38:52.432Z,-5.30
2022-12-15T09:41:29.832Z,-5.20
2022-12-15T09:44:05.943Z,-5.10
2022-12-15T09:46:57.217Z,-5.00
2022-12-15T09:49:43.961Z,-4.90
2022-12-15T09:52:14.554Z,-4.80
2022-12-15T09:54:43.658Z,-4.80
2022-12-15T09:57:33.551Z,-4.70
2022-12-15T10:00:33.182Z,-4.60
2022-12-15T10:03:28.373Z,-4.50
2022-12-15T10:06:17.123Z,-4.40
2022-12-15T10:09:10.406Z,-4.30
2022-12-15T10:11:57.232Z,-4.20
2022-12-15T10:14:44.458Z,-4.20
2022-12-15T10:17:46.818Z,-4.10
2022-12-15T10:20:22.249Z,-4.10
2022-12-15T10:22:50.407Z,-4.00
2022-12-15T10:28:17.666Z,-3.90
2022-12-15T10:31:00.503Z,-3.90
2022-12-15T10:33:47.145Z,-3.90
2022-12-15T10:36:17.729Z,-3.80
2022-12-15T10:38:50.259Z,-3.70
2022-12-15T10:41:23.457Z,-3.70
2022-12-15T10:43:53.231Z,-3.60
2022-12-15T10:46:23.149Z,-3.50
2022-12-15T10:48:52.768Z,-3.40
2022-12-15T10:51:37.405Z,-3.30
2022-12-15T10:54:10.508Z,-3.20
2022-12-15T10:56:48.358Z,-3.10
2022-12-15T10:59:23.814Z,-3.00
2022-12-15T11:01:51.602Z,-3.00
2022-12-15T11:04:32.879Z,-2.90
2022-12-15T11:07:02.522Z,-2.70
2022-12-15T11:09:35.843Z,-2.60
2022-12-15T11:12:35.710Z,-2.50
2022-12-15T11:15:03.281Z,-2.50
2022-12-15T11:17:41.130Z,-2.30
2022-12-15T11:20:18.703Z,-2.20
2022-12-15T11:22:58.929Z,-2.10
2022-12-15T11:25:39.144Z,-2.00
2022-12-15T11:28:18.596Z,-1.90
2022-12-15T11:31:25.815Z,-1.80
2022-12-15T11:33:55.975Z,-1.80
2022-12-15T11:36:57.087Z,-1.70
2022-12-15T11:39:30.023Z,-1.70
2022-12-15T11:42:22.047Z,-1.60
2022-12-15T11:45:10.622Z,-1.60
2022-12-15T11:47:43.504Z,-1.60
2022-12-15T11:50:51.133Z,-1.50
2022-12-15T11:53:32.885Z,-1.50
2022-12-15T11:56:21.807Z,-1.40
2022-12-15T11:59:16.472Z,-1.30
2022-12-15T12:02:32.691Z,-1.20
2022-12-15T12:05:31.127Z,-1.20
2022-12-15T12:08:19.088Z,-1.10
2022-12-15T12:11:07.691Z,-1.10
2022-12-15T12:13:34.896Z,-1.00
2022-12-15T12:16:26.644Z,-1.00
2022-12-15T12:19:17.786Z,-0.90
2022-12-15T12:21:50.936Z,-0.90
2022-12-15T12:24:24.665Z,-0.90
2022-12-15T12:26:59.681Z,-0.80
2022-12-15T12:29:39.116Z,-0.80
2022-12-15T12:32:21.784Z,-0.70
2022-12-15T12:38:06.454Z,-0.70
2022-12-15T12:40:51.394Z,-0.70
2022-12-15T12:43:42.352Z,-0.60
2022-12-15T12:46:58.704Z,-0.60
2022-12-15T12:49:26.914Z,-0.60
2022-12-15T12:51:57.096Z,-0.50
2022-12-15T12:54:33.856Z,-0.50
2022-12-15T12:57:02.020Z,-0.50
2022-12-15T12:59:29.131Z,-0.40
2022-12-15T13:02:20.596Z,-0.40
2022-12-15T13:05:32.814Z,-0.40
2022-12-15T13:08:09.040Z,-0.30
2022-12-15T13:10:41.774Z,-0.30
2022-12-15T13:13:46.459Z,-0.30
2022-12-15T13:16:27.102Z,-0.20
2022-12-15T13:19:08.659Z,-0.20
2022-12-15T13:21:42.122Z,-0.20
2022-12-15T13:24:35.303Z,-0.10
2022-12-15T13:27:15.874Z,-0.10
2022-12-15T13:30:00.683Z,-0.10
2022-12-15T13:32:34.122Z,-0.10
2022-12-15T13:35:14.433Z,0.00
2022-12-15T13:37:53.040Z,0.00
2022-12-15T13:40:23.748Z,0.00
2022-12-15T13:43:10.229Z,0.10
2022-12-15T13:45:53.919Z,0.10
2022-12-15T13:48:33.445Z,0.10
2022-12-15T13:51:22.012Z,0.10
2022-12-15T13:54:00.796Z,0.20
2022-12-15T13:57:01.863Z,0.20
2022-12-15T13:59:40.859Z,0.20
2022-12-15T14:02:27.651Z,0.20
2022-12-15T14:05:07.780Z,0.30
2022-12-15T14:07:35.526Z,0.30
2022-12-15T14:10:06.543Z,0.30
2022-12-15T14:12:33.909Z,0.30
2022-12-15T14:15:01.332Z,0.30
2022-12-15T14:17:33.004Z,0.30
2022-12-15T14:20:12.583Z,0.40
2022-12-15T14:22:46.229Z,0.40
2022-12-15T14:25:26.197Z,0.40
2022-12-15T14:27:53.404Z,0.40
2022-12-15T14:30:23.607Z,0.40
2022-12-15T14:33:10.758Z,0.40
2022-12-15T14:35:44.851Z,0.40
2022-12-15T14:38:43.382Z,0.40
2022-12-15T14:41:25.413Z,0.40
2022-12-15T14:44:31.536Z,0.40
2022-12-15T14:46:50.297Z,0.40
2022-12-15T14:49:22.541Z,0.40
2022-12-15T14:51:54.805Z,0.50
2022-12-15T14:54:35.933Z,0.40
2022-12-15T14:57:15.861Z,0.50
2022-12-15T14:59:45.722Z,0.50
2022-12-15T15:02:15.771Z,0.50
2022-12-15T15:03:05.020Z,-0.70
2022-12-15T15:03:06.627Z,-4.00
2022-12-15T15:04:43.154Z,0.50
2022-12-15T15:07:18.758Z,0.50
2022-12-15T15:09:46.898Z,0.50
2022-12-15T15:12:23.146Z,0.50
2022-12-15T15:15:03.383Z,0.50
2022-12-15T15:17:51.324Z,0.50
2022-12-15T15:20:30.712Z,0.50
2022-12-15T15:23:19.251Z,0.50
2022-12-15T15:25:57.877Z,0.50
2022-12-15T15:28:27.866Z,0.50
2022-12-15T15:31:07.036Z,0.50
2022-12-15T15:33:34.306Z,0.50
2022-12-15T15:36:03.105Z,0.50
2022-12-15T15:38:35.768Z,0.40
2022-12-15T15:41:16.940Z,0.40
2022-12-15T15:43:44.411Z,0.40
2022-12-15T15:46:15.945Z,0.40
2022-12-15T15:48:46.341Z,0.40
2022-12-15T15:51:14.294Z,0.40
2022-12-15T15:53:41.783Z,0.40
2022-12-15T15:56:12.758Z,0.40
2022-12-15T15:58:39.966Z,0.40
2022-12-15T16:01:12.935Z,0.40
2022-12-15T16:03:40.938Z,0.30
2022-12-15T16:06:19.103Z,0.30
2022-12-15T16:08:53.028Z,0.30
2022-12-15T16:11:23.292Z,0.30
2022-12-15T16:13:50.362Z,0.30
2022-12-15T16:16:24.365Z,0.30
2022-12-15T16:18:51.705Z,0.40
2022-12-15T16:21:23.184Z,0.30
2022-12-15T16:23:50.331Z,0.30
2022-12-15T16:26:34.572Z,0.30
2022-12-15T16:29:01.645Z,0.30
2022-12-15T16:31:35.660Z,0.30
2022-12-15T16:34:07.955Z,0.30
2022-12-15T16:36:35.427Z,0.30
2022-12-15T16:39:03.155Z,0.20
2022-12-15T16:41:30.214Z,0.20
2022-12-15T16:44:00.152Z,0.10
2022-12-15T16:46:27.424Z,0.10
2022-12-15T16:48:54.839Z,0.10
2022-12-15T16:51:37.255Z,0.00
2022-12-15T16:54:04.746Z,0.00
2022-12-15T16:56:31.899Z,0.00
2022-12-15T16:59:30.785Z,0.00
2022-12-15T17:01:46.397Z,-0.10
2022-12-15T17:04:13.893Z,-0.10
2022-12-15T17:06:40.906Z,-0.10
2022-12-15T17:09:13.636Z,-0.10
2022-12-15T17:11:40.770Z,-0.20
2022-12-15T17:14:10.832Z,-0.20
2022-12-15T17:16:38.159Z,-0.30
2022-12-15T17:19:06.399Z,-0.30
2022-12-15T17:21:47.854Z,-0.40
2022-12-15T17:24:18.359Z,-0.30
2022-12-15T17:26:45.782Z,-0.40
2022-12-15T17:29:22.671Z,-0.50
2022-12-15T17:31:50.144Z,-0.50
2022-12-15T17:34:34.898Z,-0.50
2022-12-15T17:37:05.057Z,-0.50
2022-12-15T17:39:34.794Z,-0.50
2022-12-15T17:42:03.061Z,-0.60
2022-12-15T17:44:38.280Z,-0.60
2022-12-15T17:47:08.536Z,-0.60
2022-12-15T17:49:37.968Z,-0.60
2022-12-15T17:52:34.675Z,-0.60
2022-12-15T17:55:03.436Z,-0.70
2022-12-15T17:57:33.910Z,-0.70
2022-12-15T18:00:02.171Z,-0.80
2022-12-15T18:02:29.745Z,-0.80
2022-12-15T18:04:59.717Z,-0.90
2022-12-15T18:07:26.812Z,-0.90
2022-12-15T18:09:53.920Z,-0.90
2022-12-15T18:12:24.631Z,-1.00
2022-12-15T18:14:52.822Z,-1.00
2022-12-15T18:17:20.190Z,-1.10
2022-12-15T18:19:47.422Z,-1.20
2022-12-15T18:22:22.826Z,-1.20
2022-12-15T18:24:52.845Z,-1.20
2022-12-15T18:27:26.497Z,-1.30
2022-12-15T18:30:02.150Z,-1.30
2022-12-15T18:32:38.413Z,-1.40
2022-12-15T18:35:26.594Z,-1.40
2022-12-15T18:37:54.083Z,-1.40
2022-12-15T18:40:24.179Z,-1.50
2022-12-15T18:42:51.600Z,-1.50
2022-12-15T18:45:28.322Z,-1.50
2022-12-15T18:47:55.874Z,-1.60
2022-12-15T18:50:26.513Z,-1.60
2022-12-15T18:53:02.319Z,-1.60
2022-12-15T18:55:36.335Z,-1.70
2022-12-15T18:58:03.605Z,-1.70
2022-12-15T19:00:31.329Z,-1.70
2022-12-15T19:03:00.405Z,-1.70
2022-12-15T19:05:29.236Z,-1.70
2022-12-15T19:08:04.310Z,-1.70
2022-12-15T19:10:33.367Z,-1.70
2022-12-15T19:13:00.941Z,-1.70
2022-12-15T19:15:28.157Z,-1.70
2022-12-15T19:18:27.753Z,-1.80
2022-12-15T19:21:13.730Z,-1.80
2022-12-15T19:23:41.127Z,-1.80
2022-12-15T19:26:10.258Z,-1.80
2022-12-15T19:28:37.391Z,-1.80
2022-12-15T19:31:04.698Z,-1.90
2022-12-15T19:33:32.105Z,-1.90
2022-12-15T19:35:59.646Z,-1.90
2022-12-15T19:38:31.375Z,-1.90
2022-12-15T19:41:00.246Z,-2.00
2022-12-15T19:43:28.708Z,-2.00
2022-12-15T19:45:56.101Z,-2.00
2022-12-15T19:48:24.381Z,-2.10
2022-12-15T19:50:54.925Z,-2.10
2022-12-15T19:53:26.215Z,-2.20
2022-12-15T19:55:57.078Z,-2.20
2022-12-15T19:58:37.315Z,-2.20
2022-12-15T20:01:10.710Z,-2.20
2022-12-15T20:03:39.062Z,-2.30
2022-12-15T20:06:20.790Z,-2.30
2022-12-15T20:08:51.125Z,-2.30
2022-12-15T20:11:29.070Z,-2.30
2022-12-15T20:13:56.699Z,-2.40
2022-12-15T20:16:25.025Z,-2.40
2022-12-15T20:18:55.053Z,-2.40
2022-12-15T20:21:26.605Z,-2.40
2022-12-15T20:24:00.664Z,-2.40
2022-12-15T20:26:30.411Z,-2.40
2022-12-15T20:28:58.313Z,-2.50
2022-12-15T20:31:26.204Z,-2.50
2022-12-15T20:33:54.161Z,-2.60
2022-12-15T20:36:30.505Z,-2.60
2022-12-15T20:38:57.831Z,-2.60
2022-12-15T20:41:27.840Z,-2.60
2022-12-15T20:43:55.879Z,-2.60
2022-12-15T20:46:28.491Z,-2.70
2022-12-15T20:48:56.750Z,-2.70
2022-12-15T20:51:32.420Z,-2.70
2022-12-15T20:54:01.891Z,-2.80
2022-12-15T20:56:29.327Z,-2.80
2022-12-15T20:58:58.438Z,-2.80
2022-12-15T21:01:33.118Z,-2.80
2022-12-15T21:04:03.136Z,-2.90
2022-12-15T21:06:30.996Z,-2.90
2022-12-15T21:08:58.176Z,-3.00
2022-12-15T21:11:27.706Z,-3.00
2022-12-15T21:13:56.882Z,-3.00
2022-12-15T21:16:26.743Z,-3.00
2022-12-15T21:19:19.351Z,-3.10
2022-12-15T21:21:49.109Z,-3.10
2022-12-15T21:24:26.743Z,-3.10
2022-12-15T21:26:53.829Z,-3.20
2022-12-15T21:29:24.799Z,-3.20
2022-12-15T21:31:52.501Z,-3.20
2022-12-15T21:34:19.571Z,-3.20
2022-12-15T21:36:50.610Z,-3.30
2022-12-15T21:39:30.156Z,-3.30
2022-12-15T21:42:07.388Z,-3.30
2022-12-15T21:44:35.595Z,-3.30
2022-12-15T21:47:05.652Z,-3.30
2022-12-15T21:49:34.335Z,-3.20
2022-12-15T21:52:01.800Z,-3.20
2022-12-15T21:54:35.097Z,-3.30
2022-12-15T21:57:05.383Z,-3.20
2022-12-15T21:59:33.468Z,-3.20
2022-12-15T22:02:01.563Z,-3.20
2022-12-15T22:04:35.937Z,-3.20
2022-12-15T22:07:03.316Z,-3.20
2022-12-15T22:09:30.479Z,-3.20
2022-12-15T22:12:01.564Z,-3.20
2022-12-15T22:14:32.321Z,-3.20
2022-12-15T22:17:01.189Z,-3.30
2022-12-15T22:19:28.574Z,-3.30
2022-12-15T22:21:55.747Z,-3.40
2022-12-15T22:24:22.996Z,-3.50
2022-12-15T22:26:50.445Z,-3.50
2022-12-15T22:29:22.816Z,-3.50
2022-12-15T22:31:50.918Z,-3.60
2022-12-15T22:34:23.072Z,-3.60
2022-12-15T22:36:51.074Z,-3.70
2022-12-15T22:39:19.455Z,-3.70
2022-12-15T22:41:50.087Z,-3.70
2022-12-15T22:44:32.342Z,-3.70
2022-12-15T22:47:01.813Z,-3.80
2022-12-15T22:49:36.771Z,-3.80
2022-12-15T22:52:10.489Z,-3.80
2022-12-15T22:54:41.315Z,-3.80
2022-12-15T22:57:23.038Z,-3.90
2022-12-15T23:00:00.772Z,-3.80
2022-12-15T23:02:39.164Z,-3.80
2022-12-15T23:05:10.045Z,-3.90
2022-12-15T23:07:37.199Z,-3.90
2022-12-15T23:10:23.669Z,-3.90
2022-12-15T23:12:54.716Z,-3.90
2022-12-15T23:15:42.763Z,-3.90
2022-12-15T23:18:10.288Z,-3.90
2022-12-15T23:20:38.122Z,-3.90
2022-12-15T23:23:05.912Z,-3.90
2022-12-15T23:25:33.345Z,-4.00
2022-12-15T23:28:00.983Z,-4.00
2022-12-15T23:30:28.308Z,-3.90
2022-12-15T23:32:55.606Z,-3.90
2022-12-15T23:35:23.029Z,-3.80
2022-12-15T23:37:50.274Z,-3.80
2022-12-15T23:40:21.510Z,-3.80
2022-12-15T23:42:49.774Z,-3.80
2022-12-15T23:45:18.419Z,-3.80
2022-12-15T23:47:45.870Z,-3.70
2022-12-15T23:50:13.030Z,-3.70
2022-12-15T23:52:40.944Z,-3.70
2022-12-15T23:55:10.332Z,-3.70
2022-12-15T23:57:38.646Z,-3.70
